CSCL Dalian — VRBH4 — position and weather

sailwx.info

Track history (hours):
 
Tides and Currents Weather Stations Pressure Air Temp Water Temp Dewpoint Dewpoint Depression Visibility Wind Speed Wind Dir Waves Ship Positions

CSCL Dalian

Last reported at 2017-Jun-23 16:59 UTC. Time now 2017-Jun-25 03:29 UTC.
Position N 30°04' W 116°48'.

Length 259.8 m; ; draft 11 m.

Type: Cargo ship. MMSI: 477014600.

Date/timePositionNaut miles runAvg speedWind from/ knotsBaromVisibWave heightAir tempDewpointWater temp
2017-Jun-23 16:59N 30°04' W 116°48'2418.0
2017-Jun-23 15:39N 30°26' W 116°57'218.2
2017-Jun-23 15:30N 30°29' W 116°58'4318.4
2017-Jun-23 13:10N 31°09' W 117°14'3718.3
2017-Jun-23 11:09N 31°44' W 117°28'518.5
2017-Jun-23 10:51N 31°50' W 117°30'1318.3
2017-Jun-23 10:10N 32°01' W 117°36'318.3
2017-Jun-23 10:00N 32°04' W 117°37'918.4
2017-Jun-23 09:31N 32°13' W 117°40'918.6
2017-Jun-23 09:00N 32°22' W 117°44'918.6
2017-Jun-23 08:30N 32°31' W 117°47'918.5
2017-Jun-23 08:00N 32°39' W 117°50'918.5
2017-Jun-23 07:31N 32°48' W 117°54'918.5
2017-Jun-23 07:01N 32°57' W 117°57'816.4
2017-Jun-23 06:30N 33°05' W 118°01'611.5
2017-Jun-23 06:00N 33°10' W 118°03'611.6
2017-Jun-23 05:30N 33°16' W 118°05'611.8
2017-Jun-23 05:01N 33°21' W 118°07'611.7
2017-Jun-23 04:30N 33°27' W 118°09'611.6
2017-Jun-23 04:00N 33°32' W 118°12'611.5
2017-Jun-23 03:30N 33°38' W 118°13'510.0
2017-Jun-23 03:01N 33°43' W 118°15'3 5.5
2017-Jun-23 02:30N 33°45' W 118°16'0 0.1
2017-Jun-23 01:56N 33°45' W 118°16'0 0.0
2017-Jun-23 01:26N 33°45' W 118°16'0 0.0
2017-Jun-23 00:56N 33°45' W 118°16'0 0.0
2017-Jun-23 00:29N 33°45' W 118°16'0 0.0
2017-Jun-22 23:50N 33°45' W 118°16'0 0.0
2017-Jun-22 23:29N 33°45' W 118°16'0 0.0
2017-Jun-22 22:56N 33°45' W 118°16'0 0.0
2017-Jun-22 22:14N 33°45' W 118°16'0 0.0
2017-Jun-22 21:56N 33°45' W 118°16'0 0.0
2017-Jun-22 21:26N 33°45' W 118°16'0 0.0
2017-Jun-22 20:44N 33°45' W 118°16'0 0.0
2017-Jun-22 20:26N 33°45' W 118°16'0 0.0
2017-Jun-22 20:00N 33°45' W 118°16'0 0.0
2017-Jun-22 19:30N 33°45' W 118°16'0 0.0
2017-Jun-22 19:00N 33°45' W 118°16'0 0.0
2017-Jun-22 18:29N 33°45' W 118°16'0 0.0
2017-Jun-22 18:00N 33°45' W 118°16'0 0.0
2017-Jun-22 17:30N 33°45' W 118°16'0 0.0
2017-Jun-22 17:00N 33°45' W 118°16'0 0.0
2017-Jun-22 16:30N 33°45' W 118°16'0 0.0
2017-Jun-22 16:00N 33°45' W 118°16'0 0.0
2017-Jun-22 15:29N 33°45' W 118°16'0 0.0
2017-Jun-22 15:00N 33°45' W 118°16'0 0.2
2017-Jun-22 14:30N 33°45' W 118°16'5 4.6
2017-Jun-22 13:30N 33°41' W 118°14'4 7.4
2017-Jun-22 13:00N 33°37' W 118°15'2 4.8
2017-Jun-22 12:30N 33°36' W 118°17'2 4.5
2017-Jun-22 12:00N 33°36' W 118°20'2 3.0
2017-Jun-22 11:30N 33°36' W 118°21'1 2.0
2017-Jun-22 11:00N 33°37' W 118°22'3 6.7
2017-Jun-22 10:30N 33°39' W 118°26'4 7.7
2017-Jun-22 10:00N 33°41' W 118°30'4 7.6
2017-Jun-22 09:30N 33°42' W 118°34'4 7.6
2017-Jun-22 09:00N 33°44' W 118°38'510.7
2017-Jun-22 08:30N 33°47' W 118°43'611.5
2017-Jun-22 08:00N 33°50' W 118°49'611.1
2017-Jun-22 07:30N 33°53' W 118°55'611.2
2017-Jun-22 07:00N 33°55' W 119°01'611.4
2017-Jun-22 06:30N 33°58' W 119°07'611.4
2017-Jun-22 06:00N 34°01' W 119°13'611.2
2017-Jun-22 05:30N 34°03' W 119°19'611.5
2017-Jun-22 05:00N 34°05' W 119°26'611.7
2017-Jun-22 04:30N 34°06' W 119°33'611.3
2017-Jun-22 04:00N 34°08' W 119°39'611.6
2017-Jun-22 03:30N 34°09' W 119°46'611.7
2017-Jun-22 03:00N 34°11' W 119°53'611.7
2017-Jun-22 02:30N 34°12' W 119°60'611.8
2017-Jun-22 02:00N 34°14' W 120°07'611.7
2017-Jun-22 01:29N 34°16' W 120°14'611.8
2017-Jun-22 01:00N 34°17' W 120°20'612.0
2017-Jun-22 00:30N 34°18' W 120°27'510.4
2017-Jun-22 00:00N 34°20' W 120°33'5 9.5
2017-Jun-21 23:30N 34°21' W 120°39'5 9.2
2017-Jun-21 23:00N 34°22' W 120°44'5 9.7
2017-Jun-21 22:30N 34°24' W 120°50'611.5
2017-Jun-21 22:00N 34°25' W 120°57'611.0
2017-Jun-21 21:30N 34°29' W 121°02'611.6
2017-Jun-21 21:00N 34°34' W 121°05'611.8
2017-Jun-21 20:30N 34°39' W 121°09'611.7
2017-Jun-21 20:00N 34°44' W 121°13'611.9
2017-Jun-21 19:30N 34°49' W 121°16'611.8
2017-Jun-21 19:00N 34°54' W 121°20'611.9
2017-Jun-21 18:30N 34°59' W 121°23'611.9
2017-Jun-21 18:00N 35°05' W 121°27'612.2
2017-Jun-21 17:30N 35°10' W 121°31'612.1
2017-Jun-21 17:00N 35°15' W 121°34'612.0
2017-Jun-21 16:30N 35°20' W 121°38'612.3
2017-Jun-21 16:00N 35°26' W 121°42'612.9
2017-Jun-21 15:30N 35°31' W 121°45'713.1
2017-Jun-21 15:00N 35°37' W 121°49'613.0
2017-Jun-21 14:30N 35°43' W 121°52'1312.7
2017-Jun-21 13:30N 35°55' W 121°59'612.4
2017-Jun-21 13:00N 36°00' W 122°03'612.6
2017-Jun-21 12:30N 36°06' W 122°06'712.8
2017-Jun-21 11:58N 36°12' W 122°10'612.5
2017-Jun-21 11:30N 36°17' W 122°13'612.3
2017-Jun-21 11:00N 36°22' W 122°17'611.4
2017-Jun-21 10:30N 36°28' W 122°20'611.5
2017-Jun-21 10:00N 36°33' W 122°23'611.5
2017-Jun-21 09:30N 36°38' W 122°26'611.6
2017-Jun-21 09:00N 36°43' W 122°29'612.2
2017-Jun-21 08:30N 36°49' W 122°32'611.8
2017-Jun-21 08:00N 36°54' W 122°36'611.8
2017-Jun-21 07:30N 36°59' W 122°39'611.9
2017-Jun-21 07:00N 37°04' W 122°43'612.1
2017-Jun-21 06:30N 37°09' W 122°46'612.0
2017-Jun-21 06:00N 37°15' W 122°50'612.0
2017-Jun-21 05:30N 37°20' W 122°54'611.9
2017-Jun-21 05:00N 37°25' W 122°58'612.0
2017-Jun-21 04:30N 37°30' W 123°02'510.5
2017-Jun-21 04:00N 37°35' W 123°05'510.2
2017-Jun-21 03:30N 37°37' W 122°59'5 9.4
2017-Jun-21 03:00N 37°40' W 122°54'5 9.5
2017-Jun-21 02:30N 37°42' W 122°49'4 9.0
2017-Jun-21 02:00N 37°43' W 122°43'4 7.8
2017-Jun-21 01:30N 37°46' W 122°40'713.4
2017-Jun-21 01:00N 37°48' W 122°32'611.8
2017-Jun-21 00:31N 37°50' W 122°25'510.2
2017-Jun-20 23:59N 37°48' W 122°19'0 0.1
2017-Jun-20 23:29N 37°48' W 122°19'0 0.0
2017-Jun-20 22:59N 37°48' W 122°19'0 0.0
2017-Jun-20 22:29N 37°48' W 122°19'0 0.0
2017-Jun-20 21:59N 37°48' W 122°19'0 0.0
2017-Jun-20 21:29N 37°48' W 122°19'0 0.0
2017-Jun-20 20:59N 37°48' W 122°19'0 0.0
2017-Jun-20 20:29N 37°48' W 122°19'0 0.0
2017-Jun-20 19:59N 37°48' W 122°19'0 0.0
2017-Jun-20 19:29N 37°48' W 122°19'0 0.0
2017-Jun-20 18:59N 37°48' W 122°19'0 0.0
2017-Jun-20 18:27N 37°48' W 122°19'0 0.0
2017-Jun-20 17:59N 37°48' W 122°19'0 0.0
2017-Jun-20 17:29N 37°48' W 122°19'0 0.0
2017-Jun-20 16:59N 37°48' W 122°19'0 0.0
2017-Jun-20 16:29N 37°48' W 122°19'0 0.0
2017-Jun-20 15:59N 37°48' W 122°19'0 0.0
2017-Jun-20 15:29N 37°48' W 122°19'0 0.0
2017-Jun-20 14:59N 37°48' W 122°19'0 0.0
2017-Jun-20 14:29N 37°48' W 122°19'0 0.0
2017-Jun-20 13:29N 37°48' W 122°19'0 0.0
2017-Jun-20 12:57N 37°48' W 122°19'0 0.0
2017-Jun-20 12:29N 37°48' W 122°19'0 0.0
2017-Jun-20 11:58N 37°48' W 122°19'0 0.0
2017-Jun-20 11:28N 37°48' W 122°19'0 0.0
2017-Jun-20 10:58N 37°48' W 122°19'0 0.0
2017-Jun-20 10:28N 37°48' W 122°19'0 0.0
2017-Jun-20 09:58N 37°48' W 122°19'0 0.0
2017-Jun-20 09:29N 37°48' W 122°19'0 0.0
2017-Jun-20 08:59N 37°48' W 122°19'0 0.0
2017-Jun-20 08:29N 37°48' W 122°19'0 0.0
2017-Jun-20 07:59N 37°48' W 122°19'0 0.0
2017-Jun-20 07:29N 37°48' W 122°19'0 0.0
2017-Jun-20 06:59N 37°48' W 122°19'1 1.4
2017-Jun-20 06:31N 37°48' W 122°19'0 0.5
2017-Jun-20 06:00N 37°48' W 122°18'2 3.3
2017-Jun-20 05:30N 37°48' W 122°20'4 8.0
2017-Jun-20 05:00N 37°49' W 122°25'4 7.7
2017-Jun-20 04:30N 37°48' W 122°30'816.5
2017-Jun-20 04:00N 37°46' W 122°40'510.0
2017-Jun-20 03:31N 37°46' W 122°46'5 9.8
2017-Jun-20 03:01N 37°48' W 122°52'5 9.9
2017-Jun-20 02:30N 37°51' W 122°57'510.1
2017-Jun-20 02:01N 37°53' W 123°03'5 9.9
2017-Jun-20 01:30N 37°56' W 123°08'5 9.9
2017-Jun-20 01:00N 37°59' W 123°13'5 9.8
2017-Jun-20 00:31N 38°03' W 123°17'5 9.9
2017-Jun-20 00:01N 38°07' W 123°21'713.9
2017-Jun-19 23:31N 38°12' W 123°27'714.2
2017-Jun-19 23:01N 38°17' W 123°32'714.0
2017-Jun-19 22:30N 38°23' W 123°38'713.7
2017-Jun-19 22:00N 38°28' W 123°43'713.3
2017-Jun-19 21:30N 38°33' W 123°49'813.0
2017-Jun-19 20:51N 38°39' W 123°56'513.0
2017-Jun-19 20:30N 38°43' W 124°00'612.3
2017-Jun-19 20:00N 38°47' W 124°06'712.2
2017-Jun-19 19:24N 38°53' W 124°12'27712.8
2017-Jun-18 21:47N 43°27' W 125°00'413.1
2017-Jun-18 21:30N 43°31' W 125°00'713.0
2017-Jun-18 20:57N 43°38' W 124°60'11012.3
2017-Jun-18 12:00N 45°28' W 125°00'611.9
2017-Jun-18 11:30N 45°33' W 125°02'611.5
2017-Jun-18 11:00N 45°39' W 125°03'611.5
2017-Jun-18 10:30N 45°45' W 125°04'611.6
2017-Jun-18 10:00N 45°51' W 125°04'611.7
2017-Jun-18 09:30N 45°56' W 125°06'611.8
2017-Jun-18 09:00N 46°02' W 125°07'611.8
2017-Jun-18 08:30N 46°08' W 125°08'611.6
2017-Jun-18 08:00N 46°14' W 125°10'611.5
2017-Jun-18 07:30N 46°19' W 125°11'611.5
2017-Jun-18 07:00N 46°25' W 125°12'611.4
2017-Jun-18 06:30N 46°31' W 125°13'611.4
2017-Jun-18 06:00N 46°37' W 125°14'611.2
2017-Jun-18 05:30N 46°42' W 125°15'611.3
2017-Jun-18 05:00N 46°48' W 125°16'611.2
2017-Jun-18 04:30N 46°53' W 125°17'611.2
2017-Jun-18 04:00N 46°59' W 125°17'7511.6
2017-Jun-17 21:35N 48°13' W 125°16'411.3
2017-Jun-17 21:16N 48°17' W 125°15'311.6
2017-Jun-17 21:00N 48°20' W 125°13'611.5
2017-Jun-17 20:30N 48°24' W 125°08'612.6
2017-Jun-17 20:00N 48°29' W 125°03'612.2
2017-Jun-17 19:30N 48°31' W 124°54'713.1
2017-Jun-17 19:00N 48°31' W 124°44'612.8
2017-Jun-17 18:30N 48°28' W 124°35'713.3
2017-Jun-17 18:00N 48°26' W 124°25'713.5
2017-Jun-17 17:30N 48°23' W 124°16'713.5
2017-Jun-17 17:00N 48°20' W 124°07'713.5
2017-Jun-17 16:30N 48°18' W 123°57'613.2
2017-Jun-17 16:00N 48°17' W 123°48'714.1
2017-Jun-17 15:30N 48°15' W 123°37'612.8
2017-Jun-17 15:00N 48°17' W 123°28'612.6
2017-Jun-17 14:31N 48°23' W 123°23'1111.3
2017-Jun-17 13:31N 48°32' W 123°13'1019.7
2017-Jun-17 13:01N 48°42' W 123°15'918.8
2017-Jun-17 12:31N 48°46' W 123°03'815.4
2017-Jun-17 12:00N 48°53' W 123°08'918.9
2017-Jun-17 11:31N 48°60' W 123°19'612.7
2017-Jun-17 11:00N 49°06' W 123°18'713.7
2017-Jun-17 10:30N 49°06' W 123°08'713.6
2017-Jun-17 10:00N 49°09' W 122°58'3 5.9
2017-Jun-17 09:29N 49°11' W 122°55'0 0.0
2017-Jun-17 08:56N 49°11' W 122°55'0 0.1
2017-Jun-17 08:26N 49°11' W 122°55'0 0.1
2017-Jun-17 07:56N 49°11' W 122°55'0 0.0
2017-Jun-17 07:26N 49°11' W 122°55'0 0.0
2017-Jun-17 06:56N 49°11' W 122°55'0 0.0
2017-Jun-17 06:29N 49°11' W 122°55'0 0.0
2017-Jun-17 05:59N 49°11' W 122°55'0 0.0
2017-Jun-17 05:26N 49°11' W 122°55'0 0.0
2017-Jun-17 04:56N 49°11' W 122°55'0 0.0
2017-Jun-17 04:29N 49°11' W 122°55'0 0.0
2017-Jun-17 03:56N 49°11' W 122°55'0 0.0
2017-Jun-17 03:26N 49°11' W 122°55'0 0.0
2017-Jun-17 02:59N 49°11' W 122°55'0 0.0
2017-Jun-17 02:29N 49°11' W 122°55'0 0.0
2017-Jun-17 01:59N 49°11' W 122°55'0 0.0
2017-Jun-17 01:29N 49°11' W 122°55'0 0.0
2017-Jun-17 00:59N 49°11' W 122°55'0 0.0
2017-Jun-17 00:29N 49°11' W 122°55'0 0.0
2017-Jun-16 23:59N 49°11' W 122°55'1 1.4
2017-Jun-16 23:30N 49°11' W 122°55'3 5.5
2017-Jun-16 23:00N 49°09' W 122°59'4 7.3
2017-Jun-16 22:30N 49°08' W 123°04'4 8.1
2017-Jun-16 22:00N 49°07' W 123°10'4 8.9
2017-Jun-16 21:30N 49°07' W 123°17'3 6.6
2017-Jun-16 21:00N 49°05' W 123°21'3 6.4
2017-Jun-16 20:30N 49°03' W 123°18'612.6
2017-Jun-16 20:00N 48°58' W 123°11'1018.9
2017-Jun-16 19:29N 48°51' W 123°02'714.5
2017-Jun-16 19:01N 48°45' W 123°07'815.1
2017-Jun-16 18:31N 48°39' W 123°14'917.8
2017-Jun-16 18:01N 48°30' W 123°11'815.8
2017-Jun-16 17:31N 48°23' W 123°15'612.1
2017-Jun-16 17:00N 48°21' W 123°24'612.2
2017-Jun-16 16:31N 48°15' W 123°27'713.8
2017-Jun-16 16:00N 48°09' W 123°22'611.7
2017-Jun-16 15:30N 48°11' W 123°14'918.5
2017-Jun-16 15:00N 48°12' W 123°00'918.8
2017-Jun-16 14:30N 48°11' W 122°46'1818.5
2017-Jun-16 13:31N 47°56' W 122°30'1019.0
2017-Jun-16 13:01N 47°47' W 122°27'1019.7
2017-Jun-16 12:31N 47°37' W 122°27'918.7
2017-Jun-16 12:01N 47°28' W 122°24'815.5
2017-Jun-16 11:31N 47°20' W 122°26'4 7.6
2017-Jun-16 11:00N 47°16' W 122°25'0 0.0
2017-Jun-16 10:30N 47°16' W 122°25'0 0.0
2017-Jun-16 09:54N 47°16' W 122°25'0 0.0
2017-Jun-16 09:12N 47°16' W 122°25'0 0.0
2017-Jun-16 08:54N 47°16' W 122°25'0 0.0
2017-Jun-16 08:30N 47°16' W 122°25'0 0.0
2017-Jun-16 08:00N 47°16' W 122°25'0 0.0
2017-Jun-16 07:30N 47°16' W 122°25'0 0.0
2017-Jun-16 06:39N 47°16' W 122°25'0 0.0
2017-Jun-16 06:30N 47°16' W 122°25'0 0.0
2017-Jun-16 06:00N 47°16' W 122°25'0 0.0
2017-Jun-16 05:30N 47°16' W 122°25'0 0.0
2017-Jun-16 05:00N 47°16' W 122°25'0 0.0
2017-Jun-16 04:28N 47°16' W 122°25'0 0.0
2017-Jun-16 04:00N 47°16' W 122°25'0 0.0
2017-Jun-16 03:30N 47°16' W 122°25'0 0.0
2017-Jun-16 03:00N 47°16' W 122°25'0 0.0
2017-Jun-16 02:30N 47°16' W 122°25'1 2.0
2017-Jun-16 02:00N 47°17' W 122°26'2 4.2
2017-Jun-16 01:30N 47°19' W 122°28'4 7.6
2017-Jun-16 01:00N 47°22' W 122°25'4 8.5
2017-Jun-16 00:30N 47°26' W 122°24'611.7
2017-Jun-16 00:00N 47°31' W 122°26'611.7
2017-Jun-15 23:30N 47°37' W 122°28'714.2
2017-Jun-15 23:00N 47°44' W 122°27'917.5
2017-Jun-15 22:30N 47°53' W 122°29'816.5
2017-Jun-15 22:00N 47°60' W 122°36'815.3
2017-Jun-15 21:30N 48°07' W 122°40'815.9
2017-Jun-15 21:00N 48°11' W 122°51'816.2
2017-Jun-15 20:30N 48°12' W 123°03'917.6
2017-Jun-15 20:01N 48°11' W 123°16'713.4
2017-Jun-15 19:30N 48°11' W 123°26'815.4
2017-Jun-15 19:00N 48°13' W 123°37'816.5
2017-Jun-15 18:30N 48°13' W 123°49'816.6
2017-Jun-15 18:00N 48°15' W 124°01'917.4
2017-Jun-15 17:31N 48°19' W 124°13'917.8
2017-Jun-15 17:01N 48°23' W 124°25'917.3
2017-Jun-15 16:31N 48°26' W 124°37'816.8
2017-Jun-15 16:01N 48°28' W 124°49'816.6
2017-Jun-15 15:30N 48°27' W 125°02'1019.8
2017-Jun-15 15:00N 48°17' W 125°07'2119.9
2017-Jun-15 13:58N 47°58' W 125°17'4319.7
2017-Jun-15 11:46N 47°15' W 125°10'619.7
2017-Jun-15 11:28N 47°09' W 125°09'920.0
2017-Jun-15 11:01N 47°00' W 125°06'1019.7
2017-Jun-15 10:30N 46°50' W 125°03'1019.8
2017-Jun-15 10:01N 46°41' W 124°60'1020.3
2017-Jun-15 09:30N 46°31' W 125°00'1020.3
2017-Jun-15 09:01N 46°21' W 125°00'1020.3
2017-Jun-15 08:31N 46°10' W 125°00'1019.9
2017-Jun-15 08:00N 46°00' W 125°00'1020.3
2017-Jun-15 07:31N 45°50' W 125°00'1020.2
2017-Jun-15 07:01N 45°40' W 125°00'1019.8
2017-Jun-15 06:31N 45°30' W 124°60'1020.1
2017-Jun-15 06:00N 45°20' W 125°00'1020.2
2017-Jun-15 05:31N 45°10' W 125°00'1019.8
2017-Jun-15 05:01N 45°00' W 125°00'1019.7
2017-Jun-15 04:29N 44°50' W 124°60'919.4
2017-Jun-15 04:01N 44°41' W 124°60'1519.2
2017-Jun-15 03:14N 44°26' W 124°60'519.3
2017-Jun-15 02:58N 44°21' W 125°00'919.2
2017-Jun-15 02:31N 44°12' W 125°00'1019.1
2017-Jun-15 02:00N 44°02' W 124°60'3419.2
2017-Jun-15 00:12N 43°28' W 124°60'719.2
2017-Jun-14 23:51N 43°21' W 125°00'26418.4
2017-Jun-14 09:31N 38°58' W 124°18'020.5
2017-Jun-14 09:31N 38°58' W 124°18'917.7
2017-Jun-14 09:01N 38°52' W 124°10'1118.4
2017-Jun-14 08:25N 38°44' W 124°01'818.5
2017-Jun-14 08:00N 38°38' W 123°54'918.6
2017-Jun-14 07:31N 38°31' W 123°46'918.2
2017-Jun-14 07:01N 38°25' W 123°38'917.6
2017-Jun-14 06:31N 38°18' W 123°31'816.1
2017-Jun-14 06:01N 38°12' W 123°24'611.9
2017-Jun-14 05:30N 38°08' W 123°19'5 9.4
2017-Jun-14 05:00N 38°04' W 123°15'5 9.0
2017-Jun-14 04:30N 38°01' W 123°11'4 8.7
2017-Jun-14 04:00N 37°58' W 123°07'4 8.9
2017-Jun-14 03:30N 37°56' W 123°02'5 9.2
2017-Jun-14 03:00N 37°54' W 122°57'5 9.5
2017-Jun-14 02:30N 37°51' W 122°52'5 9.8
2017-Jun-14 02:00N 37°48' W 122°47'5 9.4
2017-Jun-14 01:30N 37°46' W 122°42'510.4
2017-Jun-14 01:01N 37°47' W 122°35'815.1
2017-Jun-14 00:30N 37°50' W 122°27'611.9
2017-Jun-14 00:01N 37°48' W 122°19'0 0.9
2017-Jun-13 23:30N 37°48' W 122°19'0 0.0
2017-Jun-13 23:01N 37°48' W 122°19'0 0.1
2017-Jun-13 22:31N 37°48' W 122°19'0 0.1
2017-Jun-13 22:01N 37°48' W 122°19'0 0.0
2017-Jun-13 21:31N 37°48' W 122°19'0 0.1
2017-Jun-13 21:01N 37°48' W 122°19'0 0.1
2017-Jun-13 20:31N 37°48' W 122°19'0 0.0
2017-Jun-13 20:01N 37°48' W 122°19'0 0.0
2017-Jun-13 19:31N 37°48' W 122°19'0 0.0
2017-Jun-13 19:01N 37°48' W 122°19'0 0.0
2017-Jun-13 18:31N 37°48' W 122°19'0 0.0
2017-Jun-13 18:01N 37°48' W 122°19'0 0.0
2017-Jun-13 17:31N 37°48' W 122°19'0 0.0
2017-Jun-13 17:01N 37°48' W 122°19'  
Track history (hours):
 
Tides and Currents Weather Stations Pressure Air Temp Water Temp Dewpoint Dewpoint Depression Visibility Wind Speed Wind Dir Waves Ship Positions

CSCL Dalian

Last reported at 2017-Jun-23 16:59 UTC. Time now 2017-Jun-25 03:29 UTC.
Position N 30°04' W 116°48'.

Length 259.8 m; ; draft 11 m.

Type: Cargo ship. MMSI: 477014600.

Date/timePositionNaut miles runAvg speedWind from/ knotsBaromVisibWave heightAir tempDewpointWater temp
2017-Jun-23 16:59N 30°04' W 116°48'2418.0
2017-Jun-23 15:39N 30°26' W 116°57'218.2
2017-Jun-23 15:30N 30°29' W 116°58'4318.4
2017-Jun-23 13:10N 31°09' W 117°14'3718.3
2017-Jun-23 11:09N 31°44' W 117°28'518.5
2017-Jun-23 10:51N 31°50' W 117°30'1318.3
2017-Jun-23 10:10N 32°01' W 117°36'318.3
2017-Jun-23 10:00N 32°04' W 117°37'918.4
2017-Jun-23 09:31N 32°13' W 117°40'918.6
2017-Jun-23 09:00N 32°22' W 117°44'918.6
2017-Jun-23 08:30N 32°31' W 117°47'918.5
2017-Jun-23 08:00N 32°39' W 117°50'918.5
2017-Jun-23 07:31N 32°48' W 117°54'918.5
2017-Jun-23 07:01N 32°57' W 117°57'816.4
2017-Jun-23 06:30N 33°05' W 118°01'611.5
2017-Jun-23 06:00N 33°10' W 118°03'611.6
2017-Jun-23 05:30N 33°16' W 118°05'611.8
2017-Jun-23 05:01N 33°21' W 118°07'611.7
2017-Jun-23 04:30N 33°27' W 118°09'611.6
2017-Jun-23 04:00N 33°32' W 118°12'611.5
2017-Jun-23 03:30N 33°38' W 118°13'510.0
2017-Jun-23 03:01N 33°43' W 118°15'3 5.5
2017-Jun-23 02:30N 33°45' W 118°16'0 0.1
2017-Jun-23 01:56N 33°45' W 118°16'0 0.0
2017-Jun-23 01:26N 33°45' W 118°16'0 0.0
2017-Jun-23 00:56N 33°45' W 118°16'0 0.0
2017-Jun-23 00:29N 33°45' W 118°16'0 0.0
2017-Jun-22 23:50N 33°45' W 118°16'0 0.0
2017-Jun-22 23:29N 33°45' W 118°16'0 0.0
2017-Jun-22 22:56N 33°45' W 118°16'0 0.0
2017-Jun-22 22:14N 33°45' W 118°16'0 0.0
2017-Jun-22 21:56N 33°45' W 118°16'0 0.0
2017-Jun-22 21:26N 33°45' W 118°16'0 0.0
2017-Jun-22 20:44N 33°45' W 118°16'0 0.0
2017-Jun-22 20:26N 33°45' W 118°16'0 0.0
2017-Jun-22 20:00N 33°45' W 118°16'0 0.0
2017-Jun-22 19:30N 33°45' W 118°16'0 0.0
2017-Jun-22 19:00N 33°45' W 118°16'0 0.0
2017-Jun-22 18:29N 33°45' W 118°16'0 0.0
2017-Jun-22 18:00N 33°45' W 118°16'0 0.0
2017-Jun-22 17:30N 33°45' W 118°16'0 0.0
2017-Jun-22 17:00N 33°45' W 118°16'0 0.0
2017-Jun-22 16:30N 33°45' W 118°16'0 0.0
2017-Jun-22 16:00N 33°45' W 118°16'0 0.0
2017-Jun-22 15:29N 33°45' W 118°16'0 0.0
2017-Jun-22 15:00N 33°45' W 118°16'0 0.2
2017-Jun-22 14:30N 33°45' W 118°16'5 4.6
2017-Jun-22 13:30N 33°41' W 118°14'4 7.4
2017-Jun-22 13:00N 33°37' W 118°15'2 4.8
2017-Jun-22 12:30N 33°36' W 118°17'2 4.5
2017-Jun-22 12:00N 33°36' W 118°20'2 3.0
2017-Jun-22 11:30N 33°36' W 118°21'1 2.0
2017-Jun-22 11:00N 33°37' W 118°22'3 6.7
2017-Jun-22 10:30N 33°39' W 118°26'4 7.7
2017-Jun-22 10:00N 33°41' W 118°30'4 7.6
2017-Jun-22 09:30N 33°42' W 118°34'4 7.6
2017-Jun-22 09:00N 33°44' W 118°38'510.7
2017-Jun-22 08:30N 33°47' W 118°43'611.5
2017-Jun-22 08:00N 33°50' W 118°49'611.1
2017-Jun-22 07:30N 33°53' W 118°55'611.2
2017-Jun-22 07:00N 33°55' W 119°01'611.4
2017-Jun-22 06:30N 33°58' W 119°07'611.4
2017-Jun-22 06:00N 34°01' W 119°13'611.2
2017-Jun-22 05:30N 34°03' W 119°19'611.5
2017-Jun-22 05:00N 34°05' W 119°26'611.7
2017-Jun-22 04:30N 34°06' W 119°33'611.3
2017-Jun-22 04:00N 34°08' W 119°39'611.6
2017-Jun-22 03:30N 34°09' W 119°46'611.7
2017-Jun-22 03:00N 34°11' W 119°53'611.7
2017-Jun-22 02:30N 34°12' W 119°60'611.8
2017-Jun-22 02:00N 34°14' W 120°07'611.7
2017-Jun-22 01:29N 34°16' W 120°14'611.8
2017-Jun-22 01:00N 34°17' W 120°20'612.0
2017-Jun-22 00:30N 34°18' W 120°27'510.4
2017-Jun-22 00:00N 34°20' W 120°33'5 9.5
2017-Jun-21 23:30N 34°21' W 120°39'5 9.2
2017-Jun-21 23:00N 34°22' W 120°44'5 9.7
2017-Jun-21 22:30N 34°24' W 120°50'611.5
2017-Jun-21 22:00N 34°25' W 120°57'611.0
2017-Jun-21 21:30N 34°29' W 121°02'611.6
2017-Jun-21 21:00N 34°34' W 121°05'611.8
2017-Jun-21 20:30N 34°39' W 121°09'611.7
2017-Jun-21 20:00N 34°44' W 121°13'611.9
2017-Jun-21 19:30N 34°49' W 121°16'611.8
2017-Jun-21 19:00N 34°54' W 121°20'611.9
2017-Jun-21 18:30N 34°59' W 121°23'611.9
2017-Jun-21 18:00N 35°05' W 121°27'612.2
2017-Jun-21 17:30N 35°10' W 121°31'612.1
2017-Jun-21 17:00N 35°15' W 121°34'612.0
2017-Jun-21 16:30N 35°20' W 121°38'612.3
2017-Jun-21 16:00N 35°26' W 121°42'612.9
2017-Jun-21 15:30N 35°31' W 121°45'713.1
2017-Jun-21 15:00N 35°37' W 121°49'613.0
2017-Jun-21 14:30N 35°43' W 121°52'1312.7
2017-Jun-21 13:30N 35°55' W 121°59'612.4
2017-Jun-21 13:00N 36°00' W 122°03'612.6
2017-Jun-21 12:30N 36°06' W 122°06'712.8
2017-Jun-21 11:58N 36°12' W 122°10'612.5
2017-Jun-21 11:30N 36°17' W 122°13'612.3
2017-Jun-21 11:00N 36°22' W 122°17'611.4
2017-Jun-21 10:30N 36°28' W 122°20'611.5
2017-Jun-21 10:00N 36°33' W 122°23'611.5
2017-Jun-21 09:30N 36°38' W 122°26'611.6
2017-Jun-21 09:00N 36°43' W 122°29'612.2
2017-Jun-21 08:30N 36°49' W 122°32'611.8
2017-Jun-21 08:00N 36°54' W 122°36'611.8
2017-Jun-21 07:30N 36°59' W 122°39'611.9
2017-Jun-21 07:00N 37°04' W 122°43'612.1
2017-Jun-21 06:30N 37°09' W 122°46'612.0
2017-Jun-21 06:00N 37°15' W 122°50'612.0
2017-Jun-21 05:30N 37°20' W 122°54'611.9
2017-Jun-21 05:00N 37°25' W 122°58'612.0
2017-Jun-21 04:30N 37°30' W 123°02'510.5
2017-Jun-21 04:00N 37°35' W 123°05'510.2
2017-Jun-21 03:30N 37°37' W 122°59'5 9.4
2017-Jun-21 03:00N 37°40' W 122°54'5 9.5
2017-Jun-21 02:30N 37°42' W 122°49'4 9.0
2017-Jun-21 02:00N 37°43' W 122°43'4 7.8
2017-Jun-21 01:30N 37°46' W 122°40'713.4
2017-Jun-21 01:00N 37°48' W 122°32'611.8
2017-Jun-21 00:31N 37°50' W 122°25'510.2
2017-Jun-20 23:59N 37°48' W 122°19'0 0.1
2017-Jun-20 23:29N 37°48' W 122°19'0 0.0
2017-Jun-20 22:59N 37°48' W 122°19'0 0.0
2017-Jun-20 22:29N 37°48' W 122°19'0 0.0
2017-Jun-20 21:59N 37°48' W 122°19'0 0.0
2017-Jun-20 21:29N 37°48' W 122°19'0 0.0
2017-Jun-20 20:59N 37°48' W 122°19'0 0.0
2017-Jun-20 20:29N 37°48' W 122°19'0 0.0
2017-Jun-20 19:59N 37°48' W 122°19'0 0.0
2017-Jun-20 19:29N 37°48' W 122°19'0 0.0
2017-Jun-20 18:59N 37°48' W 122°19'0 0.0
2017-Jun-20 18:27N 37°48' W 122°19'0 0.0
2017-Jun-20 17:59N 37°48' W 122°19'0 0.0
2017-Jun-20 17:29N 37°48' W 122°19'0 0.0
2017-Jun-20 16:59N 37°48' W 122°19'0 0.0
2017-Jun-20 16:29N 37°48' W 122°19'0 0.0
2017-Jun-20 15:59N 37°48' W 122°19'0 0.0
2017-Jun-20 15:29N 37°48' W 122°19'0 0.0
2017-Jun-20 14:59N 37°48' W 122°19'0 0.0
2017-Jun-20 14:29N 37°48' W 122°19'0 0.0
2017-Jun-20 13:29N 37°48' W 122°19'0 0.0
2017-Jun-20 12:57N 37°48' W 122°19'0 0.0
2017-Jun-20 12:29N 37°48' W 122°19'0 0.0
2017-Jun-20 11:58N 37°48' W 122°19'0 0.0
2017-Jun-20 11:28N 37°48' W 122°19'0 0.0
2017-Jun-20 10:58N 37°48' W 122°19'0 0.0
2017-Jun-20 10:28N 37°48' W 122°19'0 0.0
2017-Jun-20 09:58N 37°48' W 122°19'0 0.0
2017-Jun-20 09:29N 37°48' W 122°19'0 0.0
2017-Jun-20 08:59N 37°48' W 122°19'0 0.0
2017-Jun-20 08:29N 37°48' W 122°19'0 0.0
2017-Jun-20 07:59N 37°48' W 122°19'0 0.0
2017-Jun-20 07:29N 37°48' W 122°19'0 0.0
2017-Jun-20 06:59N 37°48' W 122°19'1 1.4
2017-Jun-20 06:31N 37°48' W 122°19'0 0.5
2017-Jun-20 06:00N 37°48' W 122°18'2 3.3
2017-Jun-20 05:30N 37°48' W 122°20'4 8.0
2017-Jun-20 05:00N 37°49' W 122°25'4 7.7
2017-Jun-20 04:30N 37°48' W 122°30'816.5
2017-Jun-20 04:00N 37°46' W 122°40'510.0
2017-Jun-20 03:31N 37°46' W 122°46'5 9.8
2017-Jun-20 03:01N 37°48' W 122°52'5 9.9
2017-Jun-20 02:30N 37°51' W 122°57'510.1
2017-Jun-20 02:01N 37°53' W 123°03'5 9.9
2017-Jun-20 01:30N 37°56' W 123°08'5 9.9
2017-Jun-20 01:00N 37°59' W 123°13'5 9.8
2017-Jun-20 00:31N 38°03' W 123°17'5 9.9
2017-Jun-20 00:01N 38°07' W 123°21'713.9
2017-Jun-19 23:31N 38°12' W 123°27'714.2
2017-Jun-19 23:01N 38°17' W 123°32'714.0
2017-Jun-19 22:30N 38°23' W 123°38'713.7
2017-Jun-19 22:00N 38°28' W 123°43'713.3
2017-Jun-19 21:30N 38°33' W 123°49'813.0
2017-Jun-19 20:51N 38°39' W 123°56'513.0
2017-Jun-19 20:30N 38°43' W 124°00'612.3
2017-Jun-19 20:00N 38°47' W 124°06'712.2
2017-Jun-19 19:24N 38°53' W 124°12'27712.8
2017-Jun-18 21:47N 43°27' W 125°00'413.1
2017-Jun-18 21:30N 43°31' W 125°00'713.0
2017-Jun-18 20:57N 43°38' W 124°60'11012.3
2017-Jun-18 12:00N 45°28' W 125°00'611.9
2017-Jun-18 11:30N 45°33' W 125°02'611.5
2017-Jun-18 11:00N 45°39' W 125°03'611.5
2017-Jun-18 10:30N 45°45' W 125°04'611.6
2017-Jun-18 10:00N 45°51' W 125°04'611.7
2017-Jun-18 09:30N 45°56' W 125°06'611.8
2017-Jun-18 09:00N 46°02' W 125°07'611.8
2017-Jun-18 08:30N 46°08' W 125°08'611.6
2017-Jun-18 08:00N 46°14' W 125°10'611.5
2017-Jun-18 07:30N 46°19' W 125°11'611.5
2017-Jun-18 07:00N 46°25' W 125°12'611.4
2017-Jun-18 06:30N 46°31' W 125°13'611.4
2017-Jun-18 06:00N 46°37' W 125°14'611.2
2017-Jun-18 05:30N 46°42' W 125°15'611.3
2017-Jun-18 05:00N 46°48' W 125°16'611.2
2017-Jun-18 04:30N 46°53' W 125°17'611.2
2017-Jun-18 04:00N 46°59' W 125°17'7511.6
2017-Jun-17 21:35N 48°13' W 125°16'411.3
2017-Jun-17 21:16N 48°17' W 125°15'311.6
2017-Jun-17 21:00N 48°20' W 125°13'611.5
2017-Jun-17 20:30N 48°24' W 125°08'612.6
2017-Jun-17 20:00N 48°29' W 125°03'612.2
2017-Jun-17 19:30N 48°31' W 124°54'713.1
2017-Jun-17 19:00N 48°31' W 124°44'612.8
2017-Jun-17 18:30N 48°28' W 124°35'713.3
2017-Jun-17 18:00N 48°26' W 124°25'713.5
2017-Jun-17 17:30N 48°23' W 124°16'713.5
2017-Jun-17 17:00N 48°20' W 124°07'713.5
2017-Jun-17 16:30N 48°18' W 123°57'613.2
2017-Jun-17 16:00N 48°17' W 123°48'714.1
2017-Jun-17 15:30N 48°15' W 123°37'612.8
2017-Jun-17 15:00N 48°17' W 123°28'612.6
2017-Jun-17 14:31N 48°23' W 123°23'1111.3
2017-Jun-17 13:31N 48°32' W 123°13'1019.7
2017-Jun-17 13:01N 48°42' W 123°15'918.8
2017-Jun-17 12:31N 48°46' W 123°03'815.4
2017-Jun-17 12:00N 48°53' W 123°08'918.9
2017-Jun-17 11:31N 48°60' W 123°19'612.7
2017-Jun-17 11:00N 49°06' W 123°18'713.7
2017-Jun-17 10:30N 49°06' W 123°08'713.6
2017-Jun-17 10:00N 49°09' W 122°58'3 5.9
2017-Jun-17 09:29N 49°11' W 122°55'0 0.0
2017-Jun-17 08:56N 49°11' W 122°55'0 0.1
2017-Jun-17 08:26N 49°11' W 122°55'0 0.1
2017-Jun-17 07:56N 49°11' W 122°55'0 0.0
2017-Jun-17 07:26N 49°11' W 122°55'0 0.0
2017-Jun-17 06:56N 49°11' W 122°55'0 0.0
2017-Jun-17 06:29N 49°11' W 122°55'0 0.0
2017-Jun-17 05:59N 49°11' W 122°55'0 0.0
2017-Jun-17 05:26N 49°11' W 122°55'0 0.0
2017-Jun-17 04:56N 49°11' W 122°55'0 0.0
2017-Jun-17 04:29N 49°11' W 122°55'0 0.0
2017-Jun-17 03:56N 49°11' W 122°55'0 0.0
2017-Jun-17 03:26N 49°11' W 122°55'0 0.0
2017-Jun-17 02:59N 49°11' W 122°55'0 0.0
2017-Jun-17 02:29N 49°11' W 122°55'0 0.0
2017-Jun-17 01:59N 49°11' W 122°55'0 0.0
2017-Jun-17 01:29N 49°11' W 122°55'0 0.0
2017-Jun-17 00:59N 49°11' W 122°55'0 0.0
2017-Jun-17 00:29N 49°11' W 122°55'0 0.0
2017-Jun-16 23:59N 49°11' W 122°55'1 1.4
2017-Jun-16 23:30N 49°11' W 122°55'3 5.5
2017-Jun-16 23:00N 49°09' W 122°59'4 7.3
2017-Jun-16 22:30N 49°08' W 123°04'4 8.1
2017-Jun-16 22:00N 49°07' W 123°10'4 8.9
2017-Jun-16 21:30N 49°07' W 123°17'3 6.6
2017-Jun-16 21:00N 49°05' W 123°21'3 6.4
2017-Jun-16 20:30N 49°03' W 123°18'612.6
2017-Jun-16 20:00N 48°58' W 123°11'1018.9
2017-Jun-16 19:29N 48°51' W 123°02'714.5
2017-Jun-16 19:01N 48°45' W 123°07'815.1
2017-Jun-16 18:31N 48°39' W 123°14'917.8
2017-Jun-16 18:01N 48°30' W 123°11'815.8
2017-Jun-16 17:31N 48°23' W 123°15'612.1
2017-Jun-16 17:00N 48°21' W 123°24'612.2
2017-Jun-16 16:31N 48°15' W 123°27'713.8
2017-Jun-16 16:00N 48°09' W 123°22'611.7
2017-Jun-16 15:30N 48°11' W 123°14'918.5
2017-Jun-16 15:00N 48°12' W 123°00'918.8
2017-Jun-16 14:30N 48°11' W 122°46'1818.5
2017-Jun-16 13:31N 47°56' W 122°30'1019.0
2017-Jun-16 13:01N 47°47' W 122°27'1019.7
2017-Jun-16 12:31N 47°37' W 122°27'918.7
2017-Jun-16 12:01N 47°28' W 122°24'815.5
2017-Jun-16 11:31N 47°20' W 122°26'4 7.6
2017-Jun-16 11:00N 47°16' W 122°25'0 0.0
2017-Jun-16 10:30N 47°16' W 122°25'0 0.0
2017-Jun-16 09:54N 47°16' W 122°25'0 0.0
2017-Jun-16 09:12N 47°16' W 122°25'0 0.0
2017-Jun-16 08:54N 47°16' W 122°25'0 0.0
2017-Jun-16 08:30N 47°16' W 122°25'0 0.0
2017-Jun-16 08:00N 47°16' W 122°25'0 0.0
2017-Jun-16 07:30N 47°16' W 122°25'0 0.0
2017-Jun-16 06:39N 47°16' W 122°25'0 0.0
2017-Jun-16 06:30N 47°16' W 122°25'0 0.0
2017-Jun-16 06:00N 47°16' W 122°25'0 0.0
2017-Jun-16 05:30N 47°16' W 122°25'0 0.0
2017-Jun-16 05:00N 47°16' W 122°25'0 0.0
2017-Jun-16 04:28N 47°16' W 122°25'0 0.0
2017-Jun-16 04:00N 47°16' W 122°25'0 0.0
2017-Jun-16 03:30N 47°16' W 122°25'0 0.0
2017-Jun-16 03:00N 47°16' W 122°25'0 0.0
2017-Jun-16 02:30N 47°16' W 122°25'1 2.0
2017-Jun-16 02:00N 47°17' W 122°26'2 4.2
2017-Jun-16 01:30N 47°19' W 122°28'4 7.6
2017-Jun-16 01:00N 47°22' W 122°25'4 8.5
2017-Jun-16 00:30N 47°26' W 122°24'611.7
2017-Jun-16 00:00N 47°31' W 122°26'611.7
2017-Jun-15 23:30N 47°37' W 122°28'714.2
2017-Jun-15 23:00N 47°44' W 122°27'917.5
2017-Jun-15 22:30N 47°53' W 122°29'816.5
2017-Jun-15 22:00N 47°60' W 122°36'815.3
2017-Jun-15 21:30N 48°07' W 122°40'815.9
2017-Jun-15 21:00N 48°11' W 122°51'816.2
2017-Jun-15 20:30N 48°12' W 123°03'917.6
2017-Jun-15 20:01N 48°11' W 123°16'713.4
2017-Jun-15 19:30N 48°11' W 123°26'815.4
2017-Jun-15 19:00N 48°13' W 123°37'816.5
2017-Jun-15 18:30N 48°13' W 123°49'816.6
2017-Jun-15 18:00N 48°15' W 124°01'917.4
2017-Jun-15 17:31N 48°19' W 124°13'917.8
2017-Jun-15 17:01N 48°23' W 124°25'917.3
2017-Jun-15 16:31N 48°26' W 124°37'816.8
2017-Jun-15 16:01N 48°28' W 124°49'816.6
2017-Jun-15 15:30N 48°27' W 125°02'1019.8
2017-Jun-15 15:00N 48°17' W 125°07'2119.9
2017-Jun-15 13:58N 47°58' W 125°17'4319.7
2017-Jun-15 11:46N 47°15' W 125°10'619.7
2017-Jun-15 11:28N 47°09' W 125°09'920.0
2017-Jun-15 11:01N 47°00' W 125°06'1019.7
2017-Jun-15 10:30N 46°50' W 125°03'1019.8
2017-Jun-15 10:01N 46°41' W 124°60'1020.3
2017-Jun-15 09:30N 46°31' W 125°00'1020.3
2017-Jun-15 09:01N 46°21' W 125°00'1020.3
2017-Jun-15 08:31N 46°10' W 125°00'1019.9
2017-Jun-15 08:00N 46°00' W 125°00'1020.3
2017-Jun-15 07:31N 45°50' W 125°00'1020.2
2017-Jun-15 07:01N 45°40' W 125°00'1019.8
2017-Jun-15 06:31N 45°30' W 124°60'1020.1
2017-Jun-15 06:00N 45°20' W 125°00'1020.2
2017-Jun-15 05:31N 45°10' W 125°00'1019.8
2017-Jun-15 05:01N 45°00' W 125°00'1019.7
2017-Jun-15 04:29N 44°50' W 124°60'919.4
2017-Jun-15 04:01N 44°41' W 124°60'1519.2
2017-Jun-15 03:14N 44°26' W 124°60'519.3
2017-Jun-15 02:58N 44°21' W 125°00'919.2
2017-Jun-15 02:31N 44°12' W 125°00'1019.1
2017-Jun-15 02:00N 44°02' W 124°60'3419.2
2017-Jun-15 00:12N 43°28' W 124°60'719.2
2017-Jun-14 23:51N 43°21' W 125°00'26418.4
2017-Jun-14 09:31N 38°58' W 124°18'020.5
2017-Jun-14 09:31N 38°58' W 124°18'917.7
2017-Jun-14 09:01N 38°52' W 124°10'1118.4
2017-Jun-14 08:25N 38°44' W 124°01'818.5
2017-Jun-14 08:00N 38°38' W 123°54'918.6
2017-Jun-14 07:31N 38°31' W 123°46'918.2
2017-Jun-14 07:01N 38°25' W 123°38'917.6
2017-Jun-14 06:31N 38°18' W 123°31'816.1
2017-Jun-14 06:01N 38°12' W 123°24'611.9
2017-Jun-14 05:30N 38°08' W 123°19'5 9.4
2017-Jun-14 05:00N 38°04' W 123°15'5 9.0
2017-Jun-14 04:30N 38°01' W 123°11'4 8.7
2017-Jun-14 04:00N 37°58' W 123°07'4 8.9
2017-Jun-14 03:30N 37°56' W 123°02'5 9.2
2017-Jun-14 03:00N 37°54' W 122°57'5 9.5
2017-Jun-14 02:30N 37°51' W 122°52'5 9.8
2017-Jun-14 02:00N 37°48' W 122°47'5 9.4
2017-Jun-14 01:30N 37°46' W 122°42'510.4
2017-Jun-14 01:01N 37°47' W 122°35'815.1
2017-Jun-14 00:30N 37°50' W 122°27'611.9
2017-Jun-14 00:01N 37°48' W 122°19'0 0.9
2017-Jun-13 23:30N 37°48' W 122°19'0 0.0
2017-Jun-13 23:01N 37°48' W 122°19'0 0.1
2017-Jun-13 22:31N 37°48' W 122°19'0 0.1
2017-Jun-13 22:01N 37°48' W 122°19'0 0.0
2017-Jun-13 21:31N 37°48' W 122°19'0 0.1
2017-Jun-13 21:01N 37°48' W 122°19'0 0.1
2017-Jun-13 20:31N 37°48' W 122°19'0 0.0
2017-Jun-13 20:01N 37°48' W 122°19'0 0.0
2017-Jun-13 19:31N 37°48' W 122°19'0 0.0
2017-Jun-13 19:01N 37°48' W 122°19'0 0.0
2017-Jun-13 18:31N 37°48' W 122°19'0 0.0
2017-Jun-13 18:01N 37°48' W 122°19'0 0.0
2017-Jun-13 17:31N 37°48' W 122°19'0 0.0
2017-Jun-13 17:01N 37°48' W 122°19'  

Dump ship's entire track history